createdAt,value
2017-08-22T00:00:47.532Z,80.69
2017-08-22T00:01:57.854Z,80.69
2017-08-22T00:03:07.497Z,80.79
2017-08-22T00:04:17.463Z,80.5
2017-08-22T00:05:27.426Z,79.93
2017-08-22T00:06:37.700Z,79.93
2017-08-22T00:07:47.026Z,79.68
2017-08-22T00:08:57.294Z,79.49
2017-08-22T00:10:07.567Z,79.68
2017-08-22T00:11:17.524Z,79.11
2017-08-22T00:12:27.801Z,79.02
2017-08-22T00:13:37.442Z,78.44
2017-08-22T00:14:47.406Z,78.83
2017-08-22T00:15:57.678Z,77.87
2017-08-22T00:17:07.949Z,78.44
2017-08-22T00:18:18.217Z,78.44
2017-08-22T00:19:28.491Z,77.97
2017-08-22T00:20:38.759Z,78.06
2017-08-22T00:21:48.405Z,78.06
2017-08-22T00:22:58.680Z,77.87
2017-08-22T00:24:08.634Z,77.97
2017-08-22T00:25:18.902Z,77.87
2017-08-22T00:26:29.174Z,77.97
2017-08-22T00:27:38.498Z,78.44
2017-08-22T00:28:48.139Z,78.73
2017-08-22T00:29:58.416Z,78.54
2017-08-22T00:31:08.689Z,77.69
2017-08-22T00:32:18.961Z,78.25
2017-08-22T00:33:28.916Z,77.11
2017-08-22T00:34:39.195Z,77.69
2017-08-22T00:35:48.834Z,77.49
2017-08-22T00:36:59.103Z,77.4
2017-08-22T00:38:09.062Z,77.49
2017-08-22T00:39:19.333Z,77.59
2017-08-22T00:40:29.604Z,77.87
2017-08-22T00:41:39.875Z,76.92
2017-08-22T00:42:49.835Z,77.69
2017-08-22T00:43:59.800Z,77.11
2017-08-22T00:45:09.783Z,77.97
2017-08-22T00:46:20.060Z,78.06
2017-08-22T00:47:30.013Z,77.97
2017-08-22T00:48:39.658Z,77.69
2017-08-22T00:49:49.936Z,77.69
2017-08-22T00:51:00.206Z,78.06
2017-08-22T00:52:10.493Z,78.25
2017-08-22T00:53:20.764Z,77.87
2017-08-22T00:54:31.033Z,77.97
2017-08-22T00:55:40.990Z,77.97
2017-08-22T00:56:51.259Z,78.06
2017-08-22T00:58:01.218Z,77.4
2017-08-22T00:59:10.869Z,77.78
2017-08-22T01:00:21.137Z,77.87
2017-08-22T01:01:30.777Z,78.16
2017-08-22T01:02:40.732Z,77.97
2017-08-22T01:03:51.005Z,78.64
2017-08-22T01:05:01.275Z,78.44
2017-08-22T01:06:11.238Z,78.25
2017-08-22T01:07:21.210Z,77.87
2017-08-22T01:08:31.481Z,77.87
2017-08-22T01:09:41.433Z,78.06
2017-08-22T01:10:51.072Z,77.87
2017-08-22T01:12:01.340Z,77.69
2017-08-22T01:13:10.983Z,78.06
2017-08-22T01:14:20.624Z,78.25
2017-08-22T01:15:30.896Z,78.54
2017-08-22T01:16:41.164Z,78.73
2017-08-22T01:17:50.810Z,78.16
2017-08-22T01:19:01.081Z,78.54
2017-08-22T01:20:11.358Z,78.78
2017-08-22T01:21:21.314Z,78.31
2017-08-22T01:22:31.274Z,78.31
2017-08-22T01:23:41.226Z,79.93
2017-08-22T01:24:51.504Z,80.31
2017-08-22T01:26:01.774Z,81.36
2017-08-22T01:27:12.049Z,81.46
2017-08-22T01:28:22.318Z,81.36
2017-08-22T01:29:32.597Z,81.36
2017-08-22T01:30:42.559Z,81.74
2017-08-22T01:31:52.832Z,82.41
2017-08-22T01:33:03.103Z,81.93
2017-08-22T01:34:13.372Z,81.84
2017-08-22T01:35:23.337Z,82.31
2017-08-22T01:36:33.303Z,82.6
2017-08-22T01:37:43.255Z,82.21
2017-08-22T01:38:53.524Z,82.98
2017-08-22T01:40:03.820Z,82.5
2017-08-22T01:41:13.776Z,83.26
2017-08-22T01:42:24.048Z,82.03
2017-08-22T01:43:34.002Z,81.93
2017-08-22T01:44:44.270Z,82.21
2017-08-22T01:45:54.548Z,82.21
2017-08-22T01:47:03.875Z,82.89
2017-08-22T01:48:14.147Z,82.98
2017-08-22T01:49:24.415Z,83.36
2017-08-22T01:50:34.060Z,83.55
2017-08-22T01:51:44.016Z,83.55
2017-08-22T01:52:54.293Z,83.45
2017-08-22T01:54:04.568Z,82.6
2017-08-22T01:55:14.841Z,82.6
2017-08-22T01:56:25.111Z,82.31
2017-08-22T01:57:35.384Z,82.03
2017-08-22T01:58:45.658Z,82.31
2017-08-22T01:59:55.615Z,81.93
2017-08-22T02:01:05.261Z,83.17
2017-08-22T02:02:15.217Z,83.03
2017-08-22T02:03:25.493Z,84.08
2017-08-22T02:04:35.777Z,85.51
2017-08-22T02:05:45.732Z,86.36
2017-08-22T02:06:56.000Z,85.89
2017-08-22T02:08:05.955Z,86.94
2017-08-22T02:09:15.287Z,86.94
2017-08-22T02:10:25.391Z,85.7
2017-08-22T02:11:35.061Z,84.75
2017-08-22T02:12:45.014Z,84.08
2017-08-22T02:13:55.287Z,83.98
2017-08-22T02:15:05.240Z,83.98
2017-08-22T02:16:15.511Z,83.32
2017-08-22T02:17:25.788Z,83.32
2017-08-22T02:18:36.058Z,83.22
2017-08-22T02:19:46.325Z,83.32
2017-08-22T02:20:56.279Z,82.93
2017-08-22T02:22:06.555Z,82.93
2017-08-22T02:23:16.509Z,83.22
2017-08-22T02:24:26.465Z,82.93
2017-08-22T02:25:36.420Z,82.65
2017-08-22T02:26:46.686Z,82.08
2017-08-22T02:27:56.957Z,82.18
2017-08-22T02:29:07.255Z,83.22
2017-08-22T02:30:17.536Z,83.03
2017-08-22T02:31:27.815Z,82.56
2017-08-22T02:32:37.779Z,83.32
2017-08-22T02:33:47.743Z,83.03
2017-08-22T02:34:58.016Z,83.03
2017-08-22T02:36:07.982Z,82.93
2017-08-22T02:37:17.935Z,82.65
2017-08-22T02:38:28.209Z,82.93
2017-08-22T02:39:38.163Z,83.13
2017-08-22T02:40:47.807Z,83.89
2017-08-22T02:41:58.080Z,84.17
2017-08-22T02:43:08.035Z,84.27
2017-08-22T02:44:18.303Z,84.27
2017-08-22T02:45:28.279Z,84.75
2017-08-22T02:46:38.245Z,84.75
2017-08-22T02:47:48.211Z,84.75
2017-08-22T02:48:58.485Z,84.94
2017-08-22T02:50:08.447Z,84.8
2017-08-22T02:51:18.733Z,85.22
2017-08-22T02:52:28.691Z,85.6
2017-08-22T02:53:38.673Z,85.66
2017-08-22T02:54:48.947Z,85.51
2017-08-22T02:55:59.221Z,85.41
2017-08-22T02:57:09.173Z,85.41
2017-08-22T02:58:19.444Z,85.51
2017-08-22T02:59:29.402Z,85.32
2017-08-22T03:00:39.674Z,85.22
2017-08-22T03:01:49.947Z,85.51
2017-08-22T03:03:00.216Z,85.13
2017-08-22T03:04:10.173Z,84.84
2017-08-22T03:05:20.440Z,84.84
2017-08-22T03:06:30.708Z,84.46
2017-08-22T03:07:40.981Z,84.27
2017-08-22T03:08:51.258Z,85.13
2017-08-22T03:10:01.531Z,84.36
2017-08-22T03:11:11.170Z,84.75
2017-08-22T03:12:21.445Z,84.56
2017-08-22T03:13:31.718Z,84.46
2017-08-22T03:14:41.994Z,84.56
2017-08-22T03:15:51.629Z,83.7
2017-08-22T03:17:01.898Z,84.27
2017-08-22T03:18:11.860Z,83.61
2017-08-22T03:19:22.155Z,83.8
2017-08-22T03:20:32.111Z,83.41
2017-08-22T03:21:41.762Z,84.17
2017-08-22T03:22:51.404Z,83.32
2017-08-22T03:24:01.356Z,83.85
2017-08-22T03:25:11.631Z,83.22
2017-08-22T03:26:21.923Z,83.51
2017-08-22T03:27:32.198Z,84.08
2017-08-22T03:28:42.154Z,83.56
2017-08-22T03:29:51.800Z,83.98
2017-08-22T03:31:01.763Z,84.08
2017-08-22T03:32:12.037Z,84.04
2017-08-22T03:33:21.993Z,84.42
2017-08-22T03:34:32.263Z,83.94
2017-08-22T03:35:42.217Z,84.42
2017-08-22T03:36:52.172Z,84.42
2017-08-22T03:38:02.445Z,84.8
2017-08-22T03:39:12.402Z,84.42
2017-08-22T03:40:22.358Z,84.13
2017-08-22T03:41:32.631Z,84.42
2017-08-22T03:42:42.596Z,84.13
2017-08-22T03:43:52.560Z,83.75
2017-08-22T03:45:02.836Z,83.56
2017-08-22T03:46:12.796Z,83.65
2017-08-22T03:47:22.747Z,84.13
2017-08-22T03:48:32.702Z,83.75
2017-08-22T03:49:42.984Z,83.37
2017-08-22T03:50:53.258Z,82.9
2017-08-22T03:52:03.529Z,83.56
2017-08-22T03:53:13.488Z,83.56
2017-08-22T03:54:22.814Z,83.28
2017-08-22T03:55:32.765Z,83.18
2017-08-22T03:56:42.405Z,82.32
2017-08-22T03:57:52.675Z,83.09
2017-08-22T03:59:02.949Z,83.09
2017-08-22T04:00:13.218Z,82.23
2017-08-22T04:01:22.857Z,82.61
2017-08-22T04:02:32.809Z,83.09
2017-08-22T04:03:43.132Z,83.37
2017-08-22T04:04:53.405Z,83.37
2017-08-22T04:06:03.362Z,82.8
2017-08-22T04:07:13.312Z,82.14
2017-08-22T04:08:23.270Z,81.85
2017-08-22T04:09:33.227Z,82.8
2017-08-22T04:10:43.507Z,82.9
2017-08-22T04:11:53.773Z,82.51
2017-08-22T04:13:04.043Z,82.61
2017-08-22T04:14:14.320Z,83.37
2017-08-22T04:15:24.282Z,82.23
2017-08-22T04:16:34.245Z,82.8
2017-08-22T04:17:44.196Z,82.7
2017-08-22T04:18:54.463Z,82.9
2017-08-22T04:20:04.734Z,82.23
2017-08-22T04:21:15.005Z,81.95
2017-08-22T04:22:24.961Z,82.23
2017-08-22T04:23:35.232Z,82.42
2017-08-22T04:24:45.190Z,82.32
2017-08-22T04:25:55.145Z,82.23
2017-08-22T04:27:05.418Z,82.23
2017-08-22T04:28:15.063Z,82.51
2017-08-22T04:29:25.332Z,81.85
2017-08-22T04:30:35.598Z,82.04
2017-08-22T04:31:45.553Z,81.56
2017-08-22T04:32:55.512Z,81.66
2017-08-22T04:34:05.796Z,80.8
2017-08-22T04:35:16.069Z,80.71
2017-08-22T04:36:26.339Z,80.42
2017-08-22T04:37:36.614Z,80.23
2017-08-22T04:38:46.881Z,80.33
2017-08-22T04:39:56.836Z,80.61
2017-08-22T04:41:06.476Z,80.61
2017-08-22T04:42:16.433Z,80.23
2017-08-22T04:43:26.706Z,79.75
2017-08-22T04:44:36.975Z,80.23
2017-08-22T04:45:47.250Z,80.42
2017-08-22T04:46:57.518Z,80.52
2017-08-22T04:48:07.787Z,80.99
2017-08-22T04:49:18.056Z,80.99
2017-08-22T04:50:28.019Z,81.56
2017-08-22T04:51:38.292Z,81.32
2017-08-22T04:52:48.574Z,81.95
2017-08-22T04:53:58.531Z,81.85
2017-08-22T04:55:08.801Z,81.6
2017-08-22T04:56:18.761Z,81.7
2017-08-22T04:57:28.718Z,80.55
2017-08-22T04:58:38.992Z,80.36
2017-08-22T04:59:49.268Z,79.99
2017-08-22T05:00:59.539Z,79.51
2017-08-22T05:02:09.497Z,78.75
2017-08-22T05:03:19.453Z,79.13
2017-08-22T05:04:29.411Z,78.65
2017-08-22T05:05:39.682Z,77.98
2017-08-22T05:06:49.643Z,77.42
2017-08-22T05:07:59.924Z,77.03
2017-08-22T05:09:10.193Z,76.75
2017-08-22T05:10:19.831Z,77.8
2017-08-22T05:11:30.096Z,77.98
2017-08-22T05:12:40.059Z,78.03
2017-08-22T05:13:50.404Z,77.89
2017-08-22T05:15:00.357Z,77.89
2017-08-22T05:16:10.319Z,77.93
2017-08-22T05:17:19.960Z,77.64
2017-08-22T05:18:29.287Z,77.45
2017-08-22T05:19:39.555Z,76.69
2017-08-22T05:20:49.510Z,76.4
2017-08-22T05:21:59.783Z,75.64
2017-08-22T05:23:09.778Z,75.74
2017-08-22T05:24:20.048Z,75.74
2017-08-22T05:25:30.003Z,75.64
2017-08-22T05:26:40.269Z,75.64
2017-08-22T05:27:50.223Z,75.45
2017-08-22T05:29:00.494Z,75.16
2017-08-22T05:30:10.765Z,75.84
2017-08-22T05:31:21.037Z,75.84
2017-08-22T05:32:30.991Z,75.45
2017-08-22T05:33:40.945Z,75.36
2017-08-22T05:34:51.217Z,75.84
2017-08-22T05:36:01.488Z,76.21
2017-08-22T05:37:11.757Z,74.5
2017-08-22T05:38:22.023Z,74.98
2017-08-22T05:39:32.293Z,73.65
2017-08-22T05:40:42.248Z,74.69
2017-08-22T05:41:52.202Z,73.83
2017-08-22T05:43:02.480Z,73.87
2017-08-22T05:44:12.129Z,75.07
2017-08-22T05:45:22.096Z,74.69
2017-08-22T05:46:32.366Z,74.35
2017-08-22T05:47:42.651Z,73.45
2017-08-22T05:48:52.615Z,74.12
2017-08-22T05:50:02.567Z,73.26
2017-08-22T05:51:12.532Z,73.26
2017-08-22T05:52:22.804Z,73.93
2017-08-22T05:53:33.091Z,73.55
2017-08-22T05:54:43.362Z,72.6
2017-08-22T05:55:53.315Z,73.65
2017-08-22T05:57:02.956Z,73.26
2017-08-22T05:58:13.232Z,73.45
2017-08-22T05:59:23.196Z,73.26
2017-08-22T06:00:33.462Z,73.26
2017-08-22T06:01:43.419Z,73.26
2017-08-22T06:02:53.380Z,73.26
2017-08-22T06:04:03.653Z,72.41
2017-08-22T06:05:13.605Z,72.88
2017-08-22T06:06:23.879Z,73.74
2017-08-22T06:07:33.836Z,74.31
2017-08-22T06:08:44.106Z,73.74
2017-08-22T06:09:54.386Z,74.5
2017-08-22T06:11:04.350Z,73.83
2017-08-22T06:12:14.619Z,74.02
2017-08-22T06:13:24.578Z,74.31
2017-08-22T06:14:34.532Z,73.83
2017-08-22T06:15:44.800Z,74.4
2017-08-22T06:16:55.068Z,74.31
2017-08-22T06:18:05.019Z,74.31
2017-08-22T06:19:15.026Z,74.31
2017-08-22T06:20:24.819Z,74.31
2017-08-22T06:21:35.401Z,74.31
2017-08-22T06:22:45.669Z,74.31
2017-08-22T06:23:55.940Z,74.88
2017-08-22T06:25:05.911Z,75.64
2017-08-22T06:26:15.239Z,76.59
2017-08-22T06:27:25.514Z,77.45
2017-08-22T06:28:35.783Z,77.83
2017-08-22T06:29:45.744Z,78.5
2017-08-22T06:30:56.012Z,79.07
2017-08-22T06:32:05.673Z,79.83
2017-08-22T06:33:15.946Z,79.27
2017-08-22T06:34:26.217Z,79.17
2017-08-22T06:35:36.489Z,76.79
2017-08-22T06:36:46.765Z,76.59
2017-08-22T06:37:57.032Z,78.22
2017-08-22T06:39:06.989Z,78.22
2017-08-22T06:40:17.265Z,79.07
2017-08-22T06:41:26.906Z,78.88
2017-08-22T06:42:36.863Z,77.83
2017-08-22T06:43:47.132Z,77.07
2017-08-22T06:44:57.401Z,77.93
2017-08-22T06:46:07.686Z,76.98
2017-08-22T06:47:17.955Z,75.64
2017-08-22T06:48:28.226Z,74.79
2017-08-22T06:49:38.499Z,74.44
2017-08-22T06:50:48.470Z,74.98
2017-08-22T06:51:58.740Z,75.74
2017-08-22T06:53:09.014Z,75.68
2017-08-22T06:54:19.293Z,75.55
2017-08-22T06:55:29.561Z,75.84
2017-08-22T06:56:39.513Z,76.64
2017-08-22T06:57:49.686Z,77.45
2017-08-22T06:59:00.340Z,77.97
2017-08-22T07:00:12.254Z,77.3
2017-08-22T07:01:22.526Z,75.84
2017-08-22T07:02:34.152Z,75.64
2017-08-22T07:03:44.420Z,76.82
2017-08-22T07:04:54.061Z,77.2
2017-08-22T07:06:04.357Z,77.2
2017-08-22T07:07:14.313Z,75.96
2017-08-22T07:08:24.587Z,75.78
2017-08-22T07:09:34.859Z,75.59
2017-08-22T07:10:45.127Z,75.11
2017-08-22T07:11:55.398Z,74.98
2017-08-22T07:13:05.357Z,76.21
2017-08-22T07:14:15.635Z,74.54
2017-08-22T07:15:25.592Z,76.73
2017-08-22T07:16:35.865Z,75.49
2017-08-22T07:17:45.819Z,74.35
2017-08-22T07:18:56.087Z,74.98
2017-08-22T07:20:06.293Z,75.11
2017-08-22T07:21:16.254Z,75.4
2017-08-22T07:22:26.530Z,75.59
2017-08-22T07:23:36.804Z,74.54
2017-08-22T07:24:47.081Z,75.11
2017-08-22T07:25:57.443Z,74.25
2017-08-22T07:27:07.408Z,75.2
2017-08-22T07:28:17.368Z,75.68
2017-08-22T07:29:27.634Z,74.92
2017-08-22T07:30:37.907Z,75.01
2017-08-22T07:31:47.553Z,74.54
2017-08-22T07:32:57.819Z,74.35
2017-08-22T07:34:07.463Z,75.01
2017-08-22T07:35:17.105Z,74.48
2017-08-22T07:36:27.379Z,74.67
2017-08-22T07:37:37.649Z,73.91
2017-08-22T07:38:47.923Z,73.52
2017-08-22T07:39:57.882Z,75.81
2017-08-22T07:41:07.855Z,73.62
2017-08-22T07:42:17.823Z,72.57
2017-08-22T07:43:27.778Z,72.09
2017-08-22T07:44:38.049Z,73.14
2017-08-22T07:45:48.323Z,73.14
2017-08-22T07:46:58.607Z,73.33
2017-08-22T07:48:08.880Z,73.81
2017-08-22T07:49:19.151Z,74.19
2017-08-22T07:50:29.115Z,75.34
2017-08-22T07:51:39.389Z,73.24
2017-08-22T07:52:49.352Z,73.58
2017-08-22T07:53:59.305Z,75.49
2017-08-22T07:55:09.261Z,74.54
2017-08-22T07:56:19.541Z,74.44
2017-08-22T07:57:29.499Z,75.87
2017-08-22T07:58:39.139Z,74.54
2017-08-22T07:59:49.410Z,72.44
2017-08-22T08:00:59.678Z,72.63
2017-08-22T08:02:09.948Z,71.58
2017-08-22T08:03:20.233Z,73.21
2017-08-22T08:04:30.505Z,71.96
2017-08-22T08:05:40.469Z,71.2
2017-08-22T08:06:50.359Z,71.48
2017-08-22T08:08:00.317Z,72.72
2017-08-22T08:09:10.272Z,73.39
2017-08-22T08:10:20.545Z,69.77
2017-08-22T08:11:30.503Z,69.87
2017-08-22T08:12:40.458Z,71.39
2017-08-22T08:13:50.413Z,71.58
2017-08-22T08:15:00.686Z,70.44
2017-08-22T08:16:10.328Z,71.39
2017-08-22T08:17:20.609Z,70.47
2017-08-22T08:18:30.742Z,71.43
2017-08-22T08:19:41.014Z,72
2017-08-22T08:20:50.967Z,71.23
2017-08-22T08:22:00.294Z,71.62
2017-08-22T08:23:10.252Z,70.95
2017-08-22T08:24:22.210Z,70.86
2017-08-22T08:25:32.168Z,70.09
2017-08-22T08:26:42.129Z,71.11
2017-08-22T08:27:52.084Z,71.04
2017-08-22T08:29:02.089Z,71.72
2017-08-22T08:30:12.366Z,71.62
2017-08-22T08:31:22.332Z,72.76
2017-08-22T08:32:32.290Z,72.67
2017-08-22T08:33:42.253Z,71.23
2017-08-22T08:34:52.216Z,70.19
2017-08-22T08:36:01.858Z,71.14
2017-08-22T08:37:12.131Z,71.14
2017-08-22T08:38:22.402Z,71.46
2017-08-22T08:39:32.360Z,70.89
2017-08-22T08:40:42.640Z,71.75
2017-08-22T08:41:52.928Z,69.08
2017-08-22T08:43:02.569Z,68.22
2017-08-22T08:44:12.532Z,66.78
2017-08-22T08:45:22.814Z,67.49
2017-08-22T08:46:33.085Z,69.02
2017-08-22T08:47:43.356Z,68.54
2017-08-22T08:48:53.004Z,67.01
2017-08-22T08:50:02.963Z,67.4
2017-08-22T08:51:13.239Z,67.21
2017-08-22T08:52:23.199Z,69.21
2017-08-22T08:53:33.156Z,66.28
2017-08-22T08:54:43.429Z,66.44
2017-08-22T08:55:53.712Z,66.76
2017-08-22T08:57:04.023Z,66.25
2017-08-22T08:58:13.995Z,65.39
2017-08-22T08:59:23.971Z,66.92
2017-08-22T09:00:34.241Z,67.4
2017-08-22T09:01:44.198Z,66.82
2017-08-22T09:02:54.478Z,67.49
2017-08-22T09:04:04.752Z,66.35
2017-08-22T09:05:15.311Z,67.97
2017-08-22T09:06:25.588Z,65.52
2017-08-22T09:07:35.553Z,67.43
2017-08-22T09:08:45.831Z,67.52
2017-08-22T09:09:56.113Z,66.28
2017-08-22T09:11:08.078Z,65.9
2017-08-22T09:12:18.042Z,64.22
2017-08-22T09:13:28.321Z,65.26
2017-08-22T09:14:37.969Z,65.17
2017-08-22T09:15:48.242Z,64.62
2017-08-22T09:16:58.198Z,64.53
2017-08-22T09:18:08.472Z,63.42
2017-08-22T09:19:18.756Z,61.98
2017-08-22T09:20:28.714Z,60.64
2017-08-22T09:21:39.002Z,60.58
2017-08-22T09:22:48.977Z,60.29
2017-08-22T09:23:58.938Z,60.96
2017-08-22T09:25:09.215Z,60.13
2017-08-22T09:26:19.513Z,57.26
2017-08-22T09:27:29.160Z,58.79
2017-08-22T09:28:39.441Z,56.97
2017-08-22T09:29:49.084Z,56.39
2017-08-22T09:30:59.042Z,56.49
2017-08-22T09:32:08.686Z,56.49
2017-08-22T09:33:19.010Z,56.42
2017-08-22T09:34:28.964Z,57.38
2017-08-22T09:35:38.928Z,56.13
2017-08-22T09:36:48.266Z,55.65
2017-08-22T09:37:58.235Z,54.79
2017-08-22T09:39:07.883Z,53.83
2017-08-22T09:40:17.868Z,53.64
2017-08-22T09:41:28.142Z,54.6
2017-08-22T09:42:38.416Z,54.03
2017-08-22T09:43:48.695Z,53.48
2017-08-22T09:44:58.979Z,54.24
2017-08-22T09:46:09.255Z,53.26
2017-08-22T09:47:18.585Z,53.26
2017-08-22T09:48:28.864Z,53.58
2017-08-22T09:49:38.834Z,52.5
2017-08-22T09:50:49.115Z,54.22
2017-08-22T09:51:59.078Z,54.6
2017-08-22T09:53:09.359Z,53.55
2017-08-22T09:54:19.010Z,52.69
2017-08-22T09:55:29.293Z,53.71
2017-08-22T09:56:39.568Z,55.91
2017-08-22T09:57:49.535Z,55.44
2017-08-22T09:58:59.505Z,55.73
2017-08-22T10:00:09.153Z,55.15
2017-08-22T10:01:19.116Z,54.79
2017-08-22T10:02:29.076Z,54.03
2017-08-22T10:03:39.037Z,53.52
2017-08-22T10:04:48.998Z,54.86
2017-08-22T10:05:59.279Z,55.15
2017-08-22T10:07:09.624Z,56.59
2017-08-22T10:08:19.593Z,53.42
2017-08-22T10:09:29.553Z,53.81
2017-08-22T10:10:39.841Z,53.71
2017-08-22T10:11:50.115Z,52.59
2017-08-22T10:13:00.390Z,54
2017-08-22T10:14:10.678Z,53.74
2017-08-22T10:15:20.636Z,53.45
2017-08-22T10:16:30.288Z,54.6
2017-08-22T10:17:40.569Z,54.12
2017-08-22T10:18:50.845Z,53.07
2017-08-22T10:20:00.807Z,53.55
2017-08-22T10:21:10.769Z,52.59
2017-08-22T10:22:21.044Z,52.4
2017-08-22T10:23:31.322Z,52.87
2017-08-22T10:24:41.284Z,51.34
2017-08-22T10:25:51.242Z,54.03
2017-08-22T10:27:01.520Z,54.6
2017-08-22T10:28:11.799Z,53.83
2017-08-22T10:29:22.090Z,55.08
2017-08-22T10:30:32.362Z,52.78
2017-08-22T10:31:42.009Z,53.52
2017-08-22T10:32:51.970Z,51.7
2017-08-22T10:34:02.248Z,52.66
2017-08-22T10:35:12.528Z,55.22
2017-08-22T10:36:22.801Z,52.34
2017-08-22T10:37:33.078Z,53.4
2017-08-22T10:38:43.355Z,52.73
2017-08-22T10:39:53.312Z,53.66
2017-08-22T10:41:03.595Z,54.52
2017-08-22T10:42:13.561Z,52.63
2017-08-22T10:43:23.521Z,52.73
2017-08-22T10:44:33.803Z,53.78
2017-08-22T10:45:44.092Z,56.56
2017-08-22T10:46:53.747Z,54.16
2017-08-22T10:48:03.391Z,54.48
2017-08-22T10:49:13.668Z,52.47
2017-08-22T10:50:23.626Z,50.46
2017-08-22T10:51:33.585Z,52.37
2017-08-22T10:52:43.553Z,53.4
2017-08-22T10:53:53.858Z,54.96
2017-08-22T10:55:03.820Z,51.79
2017-08-22T10:56:13.781Z,50.74
2017-08-22T10:57:23.750Z,54.48
2017-08-22T10:58:33.719Z,55.56
2017-08-22T10:59:44.004Z,53.83
2017-08-22T11:00:54.287Z,52.4
2017-08-22T11:02:04.249Z,53.67
2017-08-22T11:03:13.266Z,51.46
2017-08-22T11:04:23.234Z,50.12
2017-08-22T11:05:33.201Z,49.84
2017-08-22T11:06:43.476Z,51.18
2017-08-22T11:07:53.751Z,50.99
2017-08-22T11:09:04.027Z,51.65
2017-08-22T11:10:14.354Z,52.62
2017-08-22T11:11:24.632Z,51.87
2017-08-22T11:12:34.595Z,52.16
2017-08-22T11:13:44.561Z,51.97
2017-08-22T11:14:54.530Z,51.4
2017-08-22T11:16:04.510Z,49.96
2017-08-22T11:17:14.475Z,48.78
2017-08-22T11:18:24.751Z,50.7
2017-08-22T11:19:35.034Z,53.48
2017-08-22T11:20:45.317Z,53.86
2017-08-22T11:21:55.612Z,51.97
2017-08-22T11:23:05.582Z,52.09
2017-08-22T11:24:15.858Z,49.33
2017-08-22T11:25:26.133Z,49.26
2017-08-22T11:26:35.785Z,49.48
2017-08-22T11:27:45.752Z,49.38
2017-08-22T11:28:56.030Z,48.64
2017-08-22T11:30:06.305Z,48.08
2017-08-22T11:31:15.959Z,47.34
2017-08-22T11:32:25.934Z,47.17
2017-08-22T11:33:35.902Z,45.92
2017-08-22T11:34:45.866Z,45.05
2017-08-22T11:35:55.833Z,45.53
2017-08-22T11:37:06.113Z,45.44
2017-08-22T11:38:16.397Z,43.32
2017-08-22T11:39:26.068Z,43.32
2017-08-22T11:40:36.351Z,44.38
2017-08-22T11:41:46.321Z,44.93
2017-08-22T11:42:56.291Z,45.15
2017-08-22T11:44:06.572Z,45.03
2017-08-22T11:45:16.540Z,45.61
2017-08-22T11:46:26.510Z,45.13
2017-08-22T11:47:36.795Z,45.49
2017-08-22T11:48:47.072Z,45.42
2017-08-22T11:49:57.040Z,44.49
2017-08-22T11:51:06.687Z,43.46
2017-08-22T11:52:16.653Z,42.73
2017-08-22T11:53:26.619Z,41.81
2017-08-22T11:54:36.902Z,41.94
2017-08-22T11:55:46.867Z,39.84
2017-08-22T11:56:56.835Z,40.69
2017-08-22T11:58:07.116Z,38.46
2017-08-22T11:59:17.093Z,39.7
2017-08-22T12:00:27.402Z,40.57
2017-08-22T12:01:37.688Z,35.57
2017-08-22T12:02:47.972Z,35.42
2017-08-22T12:03:58.267Z,37.19
2017-08-22T12:05:08.561Z,41.11
2017-08-22T12:06:18.850Z,39.29
2017-08-22T12:07:29.132Z,39.86
2017-08-22T12:08:39.421Z,39.83
2017-08-22T12:09:49.392Z,42.6
2017-08-22T12:10:59.372Z,44.79
2017-08-22T12:12:09.659Z,44.72
2017-08-22T12:13:19.943Z,44.43
2017-08-22T12:14:30.226Z,44.74
2017-08-22T12:15:40.511Z,44.17
2017-08-22T12:16:50.490Z,44.35
2017-08-22T12:18:00.459Z,44.26
2017-08-22T12:19:10.111Z,43.41
2017-08-22T12:20:20.078Z,42.69
2017-08-22T12:21:30.359Z,40.99
2017-08-22T12:22:40.648Z,41.38
2017-08-22T12:23:50.929Z,40.99
2017-08-22T12:25:00.896Z,41.19
2017-08-22T12:26:10.863Z,39.76
2017-08-22T12:27:20.830Z,38.74
2017-08-22T12:28:31.118Z,38.76
2017-08-22T12:29:41.427Z,38.58
2017-08-22T12:30:51.714Z,38.62
2017-08-22T12:32:02.008Z,37.85
2017-08-22T12:33:11.666Z,38.43
2017-08-22T12:34:21.350Z,37.36
2017-08-22T12:35:31.640Z,36.52
2017-08-22T12:36:41.615Z,35.3
2017-08-22T12:37:51.590Z,35.41
2017-08-22T12:39:01.880Z,35.53
2017-08-22T12:40:11.852Z,33.62
2017-08-22T12:41:22.142Z,34.01
2017-08-22T12:42:32.114Z,33.04
2017-08-22T12:43:42.085Z,32.35
2017-08-22T12:44:52.064Z,32.75
2017-08-22T12:46:02.034Z,31.88
2017-08-22T12:47:12.006Z,32.76
2017-08-22T12:48:22.295Z,32.26
2017-08-22T12:49:32.274Z,32.55
2017-08-22T12:50:42.587Z,32.92
2017-08-22T12:51:52.873Z,33.49
2017-08-22T12:53:03.166Z,33.69
2017-08-22T12:54:13.484Z,33.69
2017-08-22T12:55:23.460Z,33.88
2017-08-22T12:56:33.743Z,33.69
2017-08-22T12:57:44.051Z,33.28
2017-08-22T12:58:54.018Z,32.97
2017-08-22T13:00:04.306Z,33.46
2017-08-22T13:01:14.279Z,32.67
2017-08-22T13:02:24.246Z,33.44
2017-08-22T13:03:34.535Z,33.72
2017-08-22T13:04:44.822Z,33.72
2017-08-22T13:05:54.791Z,34.47
2017-08-22T13:07:05.076Z,34.47
2017-08-22T13:08:15.357Z,34.28
2017-08-22T13:09:25.326Z,34.67
2017-08-22T13:10:35.299Z,34.47
2017-08-22T13:11:45.594Z,35.64
2017-08-22T13:12:55.249Z,34.47
2017-08-22T13:14:05.217Z,32.92
2017-08-22T13:15:15.187Z,33.7
2017-08-22T13:16:25.469Z,32.75
2017-08-22T13:17:35.445Z,33.25
2017-08-22T13:18:45.437Z,32.79
2017-08-22T13:19:55.409Z,31.07
2017-08-22T13:21:05.390Z,30.4
2017-08-22T13:22:15.709Z,31.01
2017-08-22T13:23:26.009Z,31.03
2017-08-22T13:24:36.297Z,30.17
2017-08-22T13:25:46.272Z,29.69
2017-08-22T13:26:56.248Z,29.92
2017-08-22T13:28:06.534Z,29.92
2017-08-22T13:29:16.821Z,29.75
2017-08-22T13:30:27.111Z,26.93
2017-08-22T13:31:37.409Z,26.86
2017-08-22T13:32:47.066Z,25.9
2017-08-22T13:33:57.358Z,25.22
2017-08-22T13:35:07.337Z,25.82
2017-08-22T13:36:17.623Z,25.83
2017-08-22T13:37:27.922Z,25.73
2017-08-22T13:38:37.896Z,25.65
2017-08-22T13:39:47.874Z,25.27
2017-08-22T13:40:58.166Z,24.88
2017-08-22T13:42:08.142Z,24.3
2017-08-22T13:43:17.811Z,23.82
2017-08-22T13:44:28.115Z,23.14
2017-08-22T13:45:38.087Z,24.81
2017-08-22T13:46:48.386Z,23.81
2017-08-22T13:47:58.682Z,24.08
2017-08-22T13:49:08.976Z,25.15
2017-08-22T13:50:19.279Z,25.22
2017-08-22T13:51:29.250Z,25.01
2017-08-22T13:52:39.225Z,25.2
2017-08-22T13:53:49.512Z,24.61
2017-08-22T13:54:59.488Z,25.37
2017-08-22T13:56:09.784Z,25.67
2017-08-22T13:57:19.441Z,25.68
2017-08-22T13:58:29.412Z,25.5
2017-08-22T13:59:39.703Z,23.85
2017-08-22T14:00:49.995Z,24.04
2017-08-22T14:02:00.290Z,23.65
2017-08-22T14:03:10.582Z,23.27
2017-08-22T14:04:20.880Z,22.8
2017-08-22T14:05:31.165Z,21.81
2017-08-22T14:06:41.142Z,22.21
2017-08-22T14:07:51.430Z,23.1
2017-08-22T14:09:01.719Z,22.71
2017-08-22T14:10:12.016Z,22.62
2017-08-22T14:11:21.990Z,22.92
2017-08-22T14:12:32.304Z,22.34
2017-08-22T14:13:42.276Z,21.27
2017-08-22T14:14:52.250Z,23.03
2017-08-22T14:16:02.225Z,21.66
2017-08-22T14:17:12.521Z,21.17
2017-08-22T14:18:22.509Z,20.59
2017-08-22T14:19:32.806Z,21.96
2017-08-22T14:20:42.465Z,20.4
2017-08-22T14:21:52.443Z,21.09
2017-08-22T14:23:02.739Z,21.09
2017-08-22T14:24:13.031Z,22.06
2017-08-22T14:25:23.326Z,21.78
2017-08-22T14:26:32.986Z,20.22
2017-08-22T14:27:42.961Z,19.23
2017-08-22T14:28:53.252Z,20.41
2017-08-22T14:30:03.544Z,19.04
2017-08-22T14:31:13.524Z,20.21
2017-08-22T14:32:23.817Z,20.21
2017-08-22T14:33:33.792Z,20.21
2017-08-22T14:34:43.785Z,20.51
2017-08-22T14:35:54.098Z,20.91
2017-08-22T14:37:04.072Z,20.72
2017-08-22T14:38:13.733Z,19.54
2017-08-22T14:39:24.034Z,20.14
2017-08-22T14:40:34.334Z,19.36
2017-08-22T14:41:44.622Z,20.15
2017-08-22T14:42:54.922Z,19.18
2017-08-22T14:44:05.213Z,18.79
2017-08-22T14:45:15.504Z,19.08
2017-08-22T14:46:25.798Z,18.99
2017-08-22T14:47:36.088Z,19.29
2017-08-22T14:48:46.096Z,19.08
2017-08-22T14:49:56.389Z,19.27
2017-08-22T14:51:06.060Z,18.6
2017-08-22T14:52:16.034Z,18.4
2017-08-22T14:53:26.327Z,18.6
2017-08-22T14:54:36.621Z,18.3
2017-08-22T14:55:46.919Z,18.59
2017-08-22T14:56:56.897Z,19.08
2017-08-22T14:58:07.185Z,18.11
2017-08-22T14:59:17.158Z,17.71
2017-08-22T15:00:27.447Z,17.22
2017-08-22T15:01:37.735Z,17.71
2017-08-22T15:02:48.051Z,18.69
2017-08-22T15:03:58.346Z,18.4
2017-08-22T15:05:08.338Z,17.42
2017-08-22T15:06:18.630Z,18.69